Time;durP1;ratioP1;P1;durP2;ratioP2;P2;SDS_P1;SDS_P2;PMS_P1;PMS_P2;Temp;Humidity;BMP_temperature;BMP_pressure;BME280_temperature;BME280_humidity;BME280_pressure;Samples;Min_cycle;Max_cycle;Signal;HPM_P1;HPM_P2
2022/05/01 00:01:02;;;;;;;;;;;15.40;39.80;;;;;;4998206;28;19985;-91
2022/05/01 00:03:30;;;;;;;;;;;15.30;39.80;;;;;;4998238;28;20012;-91
2022/05/01 00:06:07;;;;;;;;;;;15.30;39.80;;;;;;4998458;28;19914;-90
2022/05/01 00:08:33;;;;;;;;;;;15.30;39.80;;;;;;4997990;28;19921;-91
2022/05/01 00:11:00;;;;;;;;;;;15.20;39.80;;;;;;4999142;28;19921;-90
2022/05/01 00:13:26;;;;;;;;;;;15.20;39.90;;;;;;4997167;28;19989;-91
2022/05/01 00:15:52;;;;;;;;;;;15.20;39.80;;;;;;4998745;28;20499;-90
2022/05/01 00:18:18;;;;;;;;;;;15.10;39.80;;;;;;4995657;28;20399;-92
2022/05/01 00:20:43;;;;;;;;;;;15.10;39.90;;;;;;5002125;28;19973;-92
2022/05/01 00:23:09;;;;;;;;;;;15.10;39.90;;;;;;5000234;28;20020;-90
2022/05/01 00:25:35;;;;;;;;;;;15.00;39.80;;;;;;4995661;28;19918;-90
2022/05/01 00:28:00;;;;;;;;;;;15.00;39.90;;;;;;4997782;28;19925;-92
2022/05/01 00:30:26;;;;;;;;;;;15.00;39.90;;;;;;4997164;28;19917;-91
2022/05/01 00:38:20;;;;;;;;;;;14.80;40.20;;;;;;4998690;28;19976;-91
2022/05/01 00:40:46;;;;;;;;;;;14.80;40.30;;;;;;4994867;28;19913;-90
2022/05/01 00:43:11;;;;;;;;;;;14.80;40.40;;;;;;4996414;28;19926;-92
2022/05/01 00:45:37;;;;;;;;;;;14.80;40.50;;;;;;4996859;28;19917;-90
2022/05/01 00:48:02;;;;;;;;;;;14.80;40.50;;;;;;4999463;28;19985;-91
2022/05/01 00:50:28;;;;;;;;;;;14.70;40.70;;;;;;4999572;28;19921;-93
2022/05/01 00:52:54;;;;;;;;;;;14.70;40.70;;;;;;4997885;28;20036;-91
2022/05/01 00:55:19;;;;;;;;;;;14.70;40.70;;;;;;4994827;28;19918;-90
2022/05/01 00:57:45;;;;;;;;;;;14.70;40.80;;;;;;4997602;28;19948;-92
2022/05/01 01:00:11;;;;;;;;;;;14.70;40.90;;;;;;5001932;28;19945;-92
2022/05/01 01:02:37;;;;;;;;;;;14.60;41.00;;;;;;4995042;28;20349;-91
2022/05/01 01:05:03;;;;;;;;;;;14.60;41.10;;;;;;4999700;28;19917;-90
2022/05/01 01:07:28;;;;;;;;;;;14.50;41.10;;;;;;4996735;28;20376;-91
2022/05/01 01:09:54;;;;;;;;;;;14.50;41.00;;;;;;4999485;28;19921;-92
2022/05/01 01:15:09;;;;;;;;;;;14.40;40.80;;;;;;4999236;28;19977;-93
2022/05/01 01:17:41;;;;;;;;;;;14.30;41.00;;;;;;5024245;23;19925;-85
2022/05/01 01:20:15;;;;;;;;;;;14.40;41.20;;;;;;5014686;28;19949;-85
2022/05/01 01:22:47;;;;;;;;;;;14.40;41.20;;;;;;5014893;28;20029;-85
2022/05/01 01:25:13;;;;;;;;;;;14.40;41.30;;;;;;5015951;28;20440;-86
2022/05/01 01:27:39;;;;;;;;;;;14.40;41.30;;;;;;5015823;28;20354;-86
2022/05/01 01:32:50;;;;;;;;;;;14.50;41.20;;;;;;5000478;28;19971;-86
2022/05/01 01:35:18;;;;;;;;;;;14.50;41.30;;;;;;5013950;28;19913;-86
2022/05/01 01:37:46;;;;;;;;;;;14.50;41.50;;;;;;5015198;28;19914;-86
2022/05/01 01:40:22;;;;;;;;;;;14.50;41.60;;;;;;5015265;28;19957;-85
2022/05/01 01:42:49;;;;;;;;;;;14.50;41.40;;;;;;5013505;28;19917;-86
2022/05/01 01:45:14;;;;;;;;;;;14.50;41.50;;;;;;5013479;28;19918;-86
2022/05/01 01:47:40;;;;;;;;;;;14.50;41.40;;;;;;5014338;28;19925;-86
2022/05/01 01:50:05;;;;;;;;;;;14.50;41.50;;;;;;4996770;28;19913;-86
2022/05/01 01:52:33;;;;;;;;;;;14.60;41.50;;;;;;4997155;28;20018;-86
2022/05/01 01:55:02;;;;;;;;;;;14.60;41.40;;;;;;5013736;28;19920;-87
2022/05/01 01:57:27;;;;;;;;;;;14.60;41.40;;;;;;5012850;28;19917;-86
2022/05/01 01:59:53;;;;;;;;;;;14.60;41.40;;;;;;5014618;28;19913;-86
2022/05/01 02:02:18;;;;;;;;;;;14.60;41.50;;;;;;5014025;28;19964;-86
2022/05/01 02:04:44;;;;;;;;;;;14.70;41.50;;;;;;5013082;28;19988;-86
2022/05/01 02:07:10;;;;;;;;;;;14.60;41.80;;;;;;5013094;28;20059;-86
2022/05/01 02:09:37;;;;;;;;;;;14.70;41.80;;;;;;5014329;28;19968;-85
2022/05/01 02:12:06;;;;;;;;;;;14.70;42.10;;;;;;5013293;28;19917;-86
2022/05/01 02:14:33;;;;;;;;;;;14.60;42.10;;;;;;4996990;28;20419;-86
2022/05/01 02:16:58;;;;;;;;;;;14.60;42.40;;;;;;5013292;28;19913;-85
2022/05/01 02:19:23;;;;;;;;;;;14.60;42.40;;;;;;4996466;28;19968;-85
2022/05/01 02:21:49;;;;;;;;;;;14.60;42.30;;;;;;4996472;28;20003;-86
2022/05/01 02:24:14;;;;;;;;;;;14.60;42.20;;;;;;4996045;28;19918;-85
2022/05/01 02:26:40;;;;;;;;;;;14.60;42.20;;;;;;5013718;28;19922;-85
2022/05/01 02:29:09;;;;;;;;;;;14.60;42.40;;;;;;4996760;28;19914;-85
2022/05/01 02:31:36;;;;;;;;;;;14.60;42.50;;;;;;4996331;28;19909;-85
2022/05/01 02:34:01;;;;;;;;;;;14.60;42.70;;;;;;4996407;28;19981;-85
2022/05/01 02:36:27;;;;;;;;;;;14.60;43.00;;;;;;4996601;28;19910;-85
2022/05/01 02:38:52;;;;;;;;;;;14.60;43.40;;;;;;4996408;28;19922;-85
2022/05/01 02:41:18;;;;;;;;;;;14.50;43.60;;;;;;5014054;28;20275;-85
2022/05/01 02:43:44;;;;;;;;;;;14.50;43.70;;;;;;4998670;28;20285;-84
2022/05/01 02:46:09;;;;;;;;;;;14.50;43.80;;;;;;5016954;28;19924;-85
2022/05/01 02:48:35;;;;;;;;;;;14.50;43.80;;;;;;4999551;28;20353;-85
2022/05/01 02:51:04;;;;;;;;;;;14.50;43.60;;;;;;4999410;28;20368;-85
2022/05/01 02:53:30;;;;;;;;;;;14.50;43.80;;;;;;4999328;28;19952;-85
2022/05/01 02:55:56;;;;;;;;;;;14.50;43.90;;;;;;5015537;28;19910;-85
2022/05/01 02:58:21;;;;;;;;;;;14.50;43.80;;;;;;4999210;28;19990;-85
2022/05/01 03:00:47;;;;;;;;;;;14.50;43.90;;;;;;5016781;28;20048;-85
2022/05/01 03:03:12;;;;;;;;;;;14.50;44.00;;;;;;4998374;28;19917;-85
2022/05/01 03:05:38;;;;;;;;;;;14.50;43.90;;;;;;4998899;28;20016;-85
2022/05/01 03:08:03;;;;;;;;;;;14.50;43.90;;;;;;5000170;28;19913;-85
2022/05/01 03:10:29;;;;;;;;;;;14.50;43.90;;;;;;5017449;28;19924;-85
2022/05/01 03:12:54;;;;;;;;;;;14.50;43.80;;;;;;5000364;28;19920;-85
2022/05/01 03:15:20;;;;;;;;;;;14.50;44.10;;;;;;4999343;28;19921;-85
2022/05/01 03:23:14;;;;;;;;;;;14.50;44.00;;;;;;5002747;28;19967;-85
2022/05/01 03:25:39;;;;;;;;;;;14.50;44.10;;;;;;4996735;28;19918;-85
2022/05/01 03:28:05;;;;;;;;;;;14.50;44.10;;;;;;4979298;28;19917;-84
2022/05/01 03:30:30;;;;;;;;;;;14.60;44.20;;;;;;4979814;28;19914;-86
2022/05/01 03:32:56;;;;;;;;;;;14.60;44.30;;;;;;4978698;28;19942;-85
2022/05/01 03:35:21;;;;;;;;;;;14.50;44.50;;;;;;4997083;28;19996;-85
2022/05/01 03:37:47;;;;;;;;;;;14.50;44.60;;;;;;4997179;28;19914;-85
2022/05/01 03:40:14;;;;;;;;;;;14.50;44.90;;;;;;4997399;28;20286;-85
2022/05/01 03:42:39;;;;;;;;;;;14.50;45.30;;;;;;4987931;28;20057;-85
2022/05/01 03:45:05;;;;;;;;;;;14.50;45.40;;;;;;4999544;28;19929;-85
2022/05/01 03:47:32;;;;;;;;;;;14.40;45.50;;;;;;4998882;28;20008;-85
2022/05/01 03:49:58;;;;;;;;;;;14.40;45.40;;;;;;5015143;28;20370;-85
2022/05/01 03:52:23;;;;;;;;;;;14.40;45.30;;;;;;5016260;28;19913;-85
2022/05/01 03:54:49;;;;;;;;;;;14.40;45.50;;;;;;5017127;28;19913;-85
2022/05/01 03:57:15;;;;;;;;;;;14.40;45.40;;;;;;4998750;28;19980;-85
2022/05/01 03:59:40;;;;;;;;;;;14.50;45.60;;;;;;4998681;28;19924;-85
2022/05/01 04:02:06;;;;;;;;;;;14.40;45.70;;;;;;5016178;28;20370;-86
2022/05/01 04:04:31;;;;;;;;;;;14.40;45.70;;;;;;4998177;28;19917;-86
2022/05/01 04:06:57;;;;;;;;;;;14.40;45.70;;;;;;5013263;28;19953;-85
2022/05/01 04:09:24;;;;;;;;;;;14.40;45.80;;;;;;5015660;28;19921;-85
2022/05/01 04:11:53;;;;;;;;;;;14.40;46.00;;;;;;5015478;28;19921;-85
2022/05/01 04:14:18;;;;;;;;;;;14.40;46.10;;;;;;5015498;28;19964;-86
2022/05/01 04:16:44;;;;;;;;;;;14.40;46.10;;;;;;5015736;28;19922;-86
2022/05/01 04:19:11;;;;;;;;;;;14.40;46.10;;;;;;5015978;28;19913;-86
2022/05/01 04:21:37;;;;;;;;;;;14.40;46.10;;;;;;4998195;28;19920;-85
2022/05/01 04:24:02;;;;;;;;;;;14.50;46.10;;;;;;5014496;28;20008;-85
2022/05/01 04:26:28;;;;;;;;;;;14.50;46.10;;;;;;5015763;28;19913;-86
2022/05/01 04:31:38;;;;;;;;;;;14.50;46.10;;;;;;5015846;28;19968;-86
2022/05/01 04:34:04;;;;;;;;;;;14.50;46.30;;;;;;5013842;28;19921;-86
2022/05/01 04:36:29;;;;;;;;;;;14.50;46.50;;;;;;5014333;28;19918;-86
2022/05/01 04:38:55;;;;;;;;;;;14.50;46.50;;;;;;4997729;28;20361;-86
2022/05/01 04:41:20;;;;;;;;;;;14.60;46.50;;;;;;5015704;28;20007;-86
2022/05/01 04:43:46;;;;;;;;;;;14.60;46.50;;;;;;5015922;28;20350;-86
2022/05/01 04:46:12;;;;;;;;;;;14.60;46.50;;;;;;5014343;28;19924;-86
2022/05/01 04:48:37;;;;;;;;;;;14.70;46.50;;;;;;5015601;28;19901;-86
2022/05/01 04:51:03;;;;;;;;;;;14.70;46.70;;;;;;5015917;28;19914;-86
2022/05/01 04:53:29;;;;;;;;;;;14.70;46.70;;;;;;5014869;28;20324;-87
2022/05/01 04:55:54;;;;;;;;;;;14.70;46.70;;;;;;5015353;28;19913;-86
2022/05/01 04:58:23;;;;;;;;;;;14.70;46.90;;;;;;5015549;28;19913;-86
2022/05/01 05:00:49;;;;;;;;;;;14.70;47.00;;;;;;5015717;28;19927;-86
2022/05/01 05:03:14;;;;;;;;;;;14.70;47.20;;;;;;4997720;28;19913;-86
2022/05/01 05:05:40;;;;;;;;;;;14.70;47.30;;;;;;4996955;28;20358;-87
2022/05/01 05:10:51;;;;;;;;;;;14.70;47.70;;;;;;5016490;28;19921;-86
2022/05/01 05:13:22;;;;;;;;;;;14.70;47.90;;;;;;5014892;28;19913;-86
2022/05/01 05:15:47;;;;;;;;;;;14.70;47.70;;;;;;4997776;28;19979;-86
2022/05/01 05:18:16;;;;;;;;;;;14.80;47.70;;;;;;5015706;28;20295;-85
2022/05/01 05:20:42;;;;;;;;;;;14.80;47.70;;;;;;5015491;28;20313;-86
2022/05/01 05:23:08;;;;;;;;;;;14.90;47.70;;;;;;5015466;28;19968;-85
2022/05/01 05:25:33;;;;;;;;;;;15.00;47.60;;;;;;4997423;28;19922;-86
2022/05/01 05:27:59;;;;;;;;;;;15.10;47.50;;;;;;4997451;28;19935;-86
2022/05/01 05:30:24;;;;;;;;;;;15.10;47.50;;;;;;5014913;28;19917;-86
2022/05/01 05:32:50;;;;;;;;;;;15.20;47.40;;;;;;5014914;28;19983;-86
2022/05/01 05:35:15;;;;;;;;;;;15.30;47.30;;;;;;5013867;28;19917;-86
2022/05/01 05:37:40;;;;;;;;;;;15.30;47.20;;;;;;5014308;28;20285;-86
2022/05/01 05:40:07;;;;;;;;;;;15.40;47.20;;;;;;5013069;28;19917;-87
2022/05/01 05:42:33;;;;;;;;;;;15.50;47.10;;;;;;5013483;28;19913;-87
2022/05/01 05:44:59;;;;;;;;;;;15.60;47.10;;;;;;5014850;28;19918;-86
2022/05/01 05:47:24;;;;;;;;;;;15.80;47.20;;;;;;5014116;28;19909;-86
2022/05/01 05:49:50;;;;;;;;;;;16.00;47.70;;;;;;5013824;28;19917;-86
2022/05/01 05:52:15;;;;;;;;;;;16.30;47.40;;;;;;5013886;28;19925;-87
2022/05/01 05:54:41;;;;;;;;;;;16.50;46.70;;;;;;5012968;28;19936;-86
2022/05/01 05:57:06;;;;;;;;;;;16.70;46.40;;;;;;5014968;28;19921;-87
2022/05/01 05:59:32;;;;;;;;;;;16.70;46.00;;;;;;5015244;28;19914;-86
2022/05/01 06:01:57;;;;;;;;;;;16.80;45.50;;;;;;5010122;28;19925;-86
2022/05/01 06:04:23;;;;;;;;;;;16.80;45.20;;;;;;5009281;28;19918;-87
2022/05/01 06:06:48;;;;;;;;;;;16.80;45.30;;;;;;5013147;28;19925;-86
2022/05/01 06:09:13;;;;;;;;;;;16.90;45.30;;;;;;5006914;28;19921;-87
2022/05/01 06:11:39;;;;;;;;;;;16.80;45.20;;;;;;5014337;28;19921;-87
2022/05/01 06:14:04;;;;;;;;;;;16.90;45.20;;;;;;5029604;28;19956;-87
2022/05/01 06:16:31;;;;;;;;;;;17.00;45.20;;;;;;5014109;28;19968;-87
2022/05/01 06:18:58;;;;;;;;;;;17.00;45.10;;;;;;4996448;28;19944;-87
2022/05/01 06:21:24;;;;;;;;;;;17.20;45.10;;;;;;5007908;28;19913;-87
2022/05/01 06:23:50;;;;;;;;;;;17.20;44.80;;;;;;5016500;28;20016;-86
2022/05/01 06:26:15;;;;;;;;;;;17.30;44.70;;;;;;5014819;28;19914;-86
2022/05/01 06:28:40;;;;;;;;;;;17.40;44.70;;;;;;4997383;28;19913;-87
2022/05/01 06:31:06;;;;;;;;;;;17.60;44.60;;;;;;4997587;28;19959;-86
2022/05/01 06:33:34;;;;;;;;;;;17.80;44.10;;;;;;4996943;28;20276;-87
2022/05/01 06:35:59;;;;;;;;;;;17.90;43.60;;;;;;4997373;28;20006;-86
2022/05/01 06:38:25;;;;;;;;;;;18.10;43.50;;;;;;5014264;28;20020;-87
2022/05/01 06:40:50;;;;;;;;;;;18.30;43.40;;;;;;5014948;28;19913;-86
2022/05/01 06:43:17;;;;;;;;;;;18.50;42.80;;;;;;5014493;28;20043;-87
2022/05/01 06:45:42;;;;;;;;;;;18.70;42.30;;;;;;5015264;28;19929;-86
2022/05/01 06:48:08;;;;;;;;;;;18.90;42.10;;;;;;5014589;28;19922;-87
2022/05/01 06:50:34;;;;;;;;;;;19.20;41.60;;;;;;4997192;28;19949;-86
2022/05/01 06:52:59;;;;;;;;;;;19.40;41.30;;;;;;5014565;28;19960;-87
2022/05/01 06:55:25;;;;;;;;;;;19.70;41.10;;;;;;4996564;28;20364;-87
2022/05/01 06:57:54;;;;;;;;;;;19.90;40.30;;;;;;5012948;28;20285;-87
2022/05/01 07:00:19;;;;;;;;;;;20.10;39.60;;;;;;4996017;28;20016;-86
2022/05/01 07:02:49;;;;;;;;;;;20.10;38.70;;;;;;4996340;28;19959;-87
2022/05/01 07:05:14;;;;;;;;;;;20.20;38.30;;;;;;5014005;28;19981;-87
2022/05/01 07:07:40;;;;;;;;;;;20.30;38.30;;;;;;5014027;28;20389;-87
2022/05/01 07:10:06;;;;;;;;;;;20.40;37.80;;;;;;4993687;28;19922;-86
2022/05/01 07:12:32;;;;;;;;;;;20.50;38.00;;;;;;5013421;28;19956;-87
2022/05/01 07:14:57;;;;;;;;;;;20.70;37.60;;;;;;5013736;28;19922;-87
2022/05/01 07:17:22;;;;;;;;;;;20.80;37.40;;;;;;4996225;28;19992;-87
2022/05/01 07:19:49;;;;;;;;;;;20.90;36.90;;;;;;4993121;28;19918;-87
2022/05/01 07:22:16;;;;;;;;;;;21.10;36.60;;;;;;4996344;28;19957;-87
2022/05/01 07:24:41;;;;;;;;;;;21.20;36.30;;;;;;5029277;28;19989;-87
2022/05/01 07:27:07;;;;;;;;;;;21.30;35.90;;;;;;5012823;28;19914;-87
2022/05/01 07:29:32;;;;;;;;;;;21.40;36.10;;;;;;5015444;28;19913;-87
2022/05/01 07:31:59;;;;;;;;;;;21.60;36.20;;;;;;5015261;28;19922;-87
2022/05/01 07:34:25;;;;;;;;;;;21.90;36.00;;;;;;5016210;28;19921;-87
2022/05/01 07:36:53;;;;;;;;;;;22.20;35.20;;;;;;5016882;28;19918;-87
2022/05/01 07:39:18;;;;;;;;;;;22.40;34.60;;;;;;5016179;28;19921;-88
2022/05/01 07:41:44;;;;;;;;;;;22.60;33.70;;;;;;5015097;28;19913;-88
2022/05/01 07:44:11;;;;;;;;;;;22.80;33.70;;;;;;5015273;28;19921;-88
2022/05/01 07:46:51;;;;;;;;;;;23.00;33.10;;;;;;5003195;28;20385;-87
2022/05/01 07:49:17;;;;;;;;;;;23.10;32.80;;;;;;4971819;28;19922;-88
2022/05/01 07:51:43;;;;;;;;;;;23.20;32.80;;;;;;4968892;28;19996;-87
2022/05/01 07:54:16;;;;;;;;;;;23.30;32.80;;;;;;4968727;28;19994;-87
2022/05/01 07:56:42;;;;;;;;;;;23.50;32.90;;;;;;4977109;28;19920;-87
2022/05/01 07:59:08;;;;;;;;;;;23.70;32.50;;;;;;4976947;28;19992;-89
2022/05/01 08:01:34;;;;;;;;;;;23.80;31.90;;;;;;4979752;28;20016;-87
2022/05/01 08:06:44;;;;;;;;;;;24.20;32.00;;;;;;4981267;28;19961;-88
2022/05/01 08:09:09;;;;;;;;;;;24.50;32.10;;;;;;4989824;28;19921;-89
2022/05/01 08:11:35;;;;;;;;;;;24.90;31.40;;;;;;4980626;28;19910;-87
2022/05/01 08:14:01;;;;;;;;;;;25.20;30.30;;;;;;4993684;28;19921;-88
2022/05/01 08:16:28;;;;;;;;;;;25.60;30.50;;;;;;4985736;28;19925;-88
2022/05/01 08:21:37;;;;;;;;;;;26.40;29.80;;;;;;5014944;28;20480;-88
2022/05/01 08:24:03;;;;;;;;;;;27.00;28.70;;;;;;4998490;28;19956;-88
2022/05/01 08:26:31;;;;;;;;;;;27.30;27.70;;;;;;5016687;28;19921;-87
2022/05/01 08:28:59;;;;;;;;;;;27.60;27.60;;;;;;5014979;28;19930;-89
2022/05/01 08:31:24;;;;;;;;;;;28.00;27.70;;;;;;5017509;28;19988;-87
2022/05/01 08:33:50;;;;;;;;;;;28.30;26.80;;;;;;5014567;28;20001;-88
2022/05/01 08:36:15;;;;;;;;;;;28.60;26.70;;;;;;5014745;28;20007;-88
2022/05/01 08:38:42;;;;;;;;;;;28.80;26.30;;;;;;5014746;28;19921;-87
2022/05/01 08:41:08;;;;;;;;;;;29.00;25.00;;;;;;5014853;28;19914;-87
2022/05/01 08:43:34;;;;;;;;;;;29.00;24.30;;;;;;4997083;28;20327;-88
2022/05/01 08:46:10;;;;;;;;;;;28.90;24.30;;;;;;4997168;28;19921;-87
2022/05/01 08:48:40;;;;;;;;;;;28.90;24.20;;;;;;4997618;28;19913;-88
2022/05/01 08:51:07;;;;;;;;;;;28.90;24.30;;;;;;5015359;28;19913;-88
2022/05/01 08:53:33;;;;;;;;;;;29.00;25.00;;;;;;4997202;28;19952;-88
2022/05/01 08:55:59;;;;;;;;;;;29.00;24.30;;;;;;5015296;28;20018;-88
2022/05/01 08:58:26;;;;;;;;;;;28.90;24.00;;;;;;5015042;28;19921;-88
2022/05/01 09:00:53;;;;;;;;;;;28.80;23.30;;;;;;4997281;28;20322;-88
2022/05/01 09:03:18;;;;;;;;;;;28.50;23.30;;;;;;4997405;28;20004;-87
2022/05/01 09:05:44;;;;;;;;;;;28.50;23.60;;;;;;5014057;28;20318;-88
2022/05/01 09:08:10;;;;;;;;;;;28.50;23.50;;;;;;5014770;28;20270;-88
2022/05/01 09:10:36;;;;;;;;;;;28.60;23.70;;;;;;4997052;28;19917;-88
2022/05/01 09:13:01;;;;;;;;;;;28.70;23.30;;;;;;5012355;28;20004;-88
2022/05/01 09:15:31;;;;;;;;;;;28.80;23.10;;;;;;5015115;28;20083;-87
2022/05/01 09:18:01;;;;;;;;;;;28.80;22.90;;;;;;5015279;28;19936;-87
2022/05/01 09:20:26;;;;;;;;;;;29.10;23.10;;;;;;5014714;28;19924;-87
2022/05/01 09:22:52;;;;;;;;;;;29.50;22.80;;;;;;4989462;28;19913;-87
2022/05/01 09:25:19;;;;;;;;;;;30.00;22.60;;;;;;5014425;28;19953;-86
2022/05/01 09:27:45;;;;;;;;;;;30.20;21.90;;;;;;5014413;28;19983;-87
2022/05/01 09:30:10;;;;;;;;;;;30.40;22.00;;;;;;5014245;28;20004;-87
2022/05/01 09:32:39;;;;;;;;;;;30.80;21.80;;;;;;4995867;28;19936;-86
2022/05/01 09:35:06;;;;;;;;;;;31.20;21.10;;;;;;5013601;28;19917;-86
2022/05/01 09:37:31;;;;;;;;;;;31.40;20.50;;;;;;4995987;28;19949;-87
2022/05/01 09:39:57;;;;;;;;;;;31.80;20.40;;;;;;5013740;28;20526;-88
2022/05/01 09:42:25;;;;;;;;;;;32.00;19.50;;;;;;5014512;28;19913;-89
2022/05/01 09:45:09;;;;;;;;;;;32.00;19.30;;;;;;4996978;28;19952;-89
2022/05/01 09:47:35;;;;;;;;;;;32.30;19.50;;;;;;5012781;28;19917;-89
2022/05/01 09:50:01;;;;;;;;;;;32.60;18.80;;;;;;5012582;28;19917;-87
2022/05/01 09:52:48;;;;;;;;;;;32.60;17.60;;;;;;5033405;28;20277;-90
2022/05/01 09:55:14;;;;;;;;;;;32.70;17.30;;;;;;5015579;28;19917;-87
2022/05/01 09:57:39;;;;;;;;;;;32.90;16.90;;;;;;5015774;28;19924;-87
2022/05/01 10:00:05;;;;;;;;;;;33.10;16.80;;;;;;5016218;28;20381;-88
2022/05/01 10:02:31;;;;;;;;;;;33.00;16.50;;;;;;4997530;28;19913;-86
2022/05/01 10:05:02;;;;;;;;;;;33.10;16.40;;;;;;4994607;28;19921;-88
2022/05/01 10:07:30;;;;;;;;;;;33.00;16.30;;;;;;5012992;28;19910;-86
2022/05/01 10:09:55;;;;;;;;;;;32.80;16.70;;;;;;4998317;28;20259;-87
2022/05/01 10:12:22;;;;;;;;;;;32.70;16.80;;;;;;4995275;28;20002;-87
2022/05/01 10:14:48;;;;;;;;;;;32.70;17.10;;;;;;5012220;28;19977;-87
2022/05/01 10:17:14;;;;;;;;;;;32.90;17.20;;;;;;5011736;28;19914;-88
2022/05/01 10:19:40;;;;;;;;;;;33.10;16.30;;;;;;4996350;28;19940;-87
2022/05/01 10:22:06;;;;;;;;;;;32.90;16.30;;;;;;5013808;28;19916;-88
2022/05/01 10:24:33;;;;;;;;;;;32.70;16.40;;;;;;5013578;28;20482;-86
2022/05/01 10:27:14;;;;;;;;;;;32.40;16.30;;;;;;5012935;28;19914;-86
2022/05/01 10:32:20;;;;;;;;;;;32.20;16.60;;;;;;5012751;28;19927;-88
2022/05/01 10:32:37;;;;;;;;;;;31.90;16.70;;;;;;5011627;28;20372;-87
2022/05/01 10:35:14;;;;;;;;;;;31.40;16.90;;;;;;5011007;28;19913;-86
2022/05/01 10:37:40;;;;;;;;;;;31.20;17.50;;;;;;5010528;28;20266;-86
2022/05/01 10:40:06;;;;;;;;;;;31.10;17.60;;;;;;5013111;28;19914;-87
2022/05/01 10:42:36;;;;;;;;;;;31.00;17.50;;;;;;5012597;28;20316;-86
2022/05/01 10:45:02;;;;;;;;;;;30.70;17.60;;;;;;4994958;28;19975;-87
2022/05/01 10:47:37;;;;;;;;;;;30.50;18.00;;;;;;4995404;28;19967;-88
2022/05/01 10:50:07;;;;;;;;;;;30.30;18.10;;;;;;5012483;28;19925;-86
2022/05/01 10:52:33;;;;;;;;;;;30.00;18.40;;;;;;4994922;28;19914;-86
2022/05/01 10:55:01;;;;;;;;;;;29.80;18.80;;;;;;5012569;28;20417;-87
2022/05/01 10:57:26;;;;;;;;;;;29.70;19.10;;;;;;4994752;28;20350;-87
2022/05/01 11:00:10;;;;;;;;;;;29.70;19.10;;;;;;5012605;28;19920;-87
2022/05/01 11:02:40;;;;;;;;;;;29.80;19.20;;;;;;5013507;28;20365;-87
2022/05/01 11:05:08;;;;;;;;;;;29.80;19.20;;;;;;5016536;28;19922;-88
2022/05/01 11:07:37;;;;;;;;;;;29.80;19.30;;;;;;4998307;28;19979;-86
2022/05/01 11:10:04;;;;;;;;;;;29.90;19.40;;;;;;5015841;28;19957;-87
2022/05/01 11:12:32;;;;;;;;;;;30.00;19.00;;;;;;5025952;28;19917;-86
2022/05/01 11:14:57;;;;;;;;;;;30.10;19.00;;;;;;5034572;28;19917;-87
2022/05/01 11:17:46;;;;;;;;;;;30.10;19.00;;;;;;5034357;28;19909;-88
2022/05/01 11:20:14;;;;;;;;;;;30.20;19.30;;;;;;5033917;28;19974;-87
2022/05/01 11:22:40;;;;;;;;;;;30.40;18.50;;;;;;5033783;28;19917;-88
2022/05/01 11:25:10;;;;;;;;;;;30.30;18.30;;;;;;5017629;28;20012;-86
2022/05/01 11:27:46;;;;;;;;;;;30.30;18.30;;;;;;5035730;28;19909;-86
2022/05/01 11:30:13;;;;;;;;;;;30.30;18.50;;;;;;5003117;28;19918;-85
2022/05/01 11:32:42;;;;;;;;;;;30.40;18.40;;;;;;4995507;28;19914;-86
2022/05/01 11:35:08;;;;;;;;;;;30.60;18.70;;;;;;4995303;28;20239;-87
2022/05/01 11:37:45;;;;;;;;;;;30.80;18.40;;;;;;4994956;28;19940;-87
2022/05/01 11:40:15;;;;;;;;;;;31.00;18.30;;;;;;4994788;28;19914;-86
2022/05/01 11:42:41;;;;;;;;;;;31.20;18.00;;;;;;4996093;28;19918;-85
2022/05/01 11:45:10;;;;;;;;;;;31.30;17.80;;;;;;5006101;28;19961;-86
2022/05/01 11:47:36;;;;;;;;;;;31.30;17.80;;;;;;4997837;28;19914;-86
2022/05/01 11:50:05;;;;;;;;;;;31.20;17.60;;;;;;5015744;28;19921;-87
2022/05/01 11:52:34;;;;;;;;;;;31.10;18.00;;;;;;5016439;28;19914;-87
2022/05/01 11:55:06;;;;;;;;;;;31.30;18.20;;;;;;4997941;28;20020;-86
2022/05/01 12:03:05;;;;;;;;;;;31.20;17.70;;;;;;4995668;28;20262;-87
2022/05/01 12:05:33;;;;;;;;;;;31.80;17.90;;;;;;4995382;28;19926;-87
2022/05/01 12:07:59;;;;;;;;;;;32.90;17.20;;;;;;4995830;28;20380;-87
2022/05/01 12:10:26;;;;;;;;;;;33.80;16.40;;;;;;4995889;28;19921;-87
2022/05/01 12:12:52;;;;;;;;;;;34.10;15.70;;;;;;4995930;28;19914;-86
2022/05/01 12:15:18;;;;;;;;;;;33.80;15.90;;;;;;4993553;28;19968;-87
2022/05/01 12:17:43;;;;;;;;;;;33.20;15.80;;;;;;5011476;28;20288;-87
2022/05/01 12:20:09;;;;;;;;;;;32.40;15.90;;;;;;5015358;28;19917;-86
2022/05/01 12:22:39;;;;;;;;;;;31.80;16.40;;;;;;4996980;28;19921;-86
2022/05/01 12:25:06;;;;;;;;;;;31.40;16.90;;;;;;5012622;28;19960;-87
2022/05/01 12:27:33;;;;;;;;;;;31.00;16.90;;;;;;4996348;28;20476;-87
2022/05/01 12:30:00;;;;;;;;;;;30.70;17.40;;;;;;4996449;28;19914;-88
2022/05/01 12:32:26;;;;;;;;;;;30.40;17.70;;;;;;4995407;28;20008;-87
2022/05/01 12:34:51;;;;;;;;;;;30.30;18.00;;;;;;5002496;28;19967;-88
2022/05/01 12:37:18;;;;;;;;;;;30.30;18.10;;;;;;5020315;28;19913;-87
2022/05/01 12:39:55;;;;;;;;;;;30.20;18.20;;;;;;5010902;28;19917;-86
2022/05/01 12:45:10;;;;;;;;;;;29.40;18.70;;;;;;5011983;28;19948;-87
2022/05/01 12:47:39;;;;;;;;;;;29.00;18.90;;;;;;5010985;28;19913;-88
2022/05/01 12:50:22;;;;;;;;;;;28.80;19.40;;;;;;5011781;28;20189;-87
2022/05/01 12:52:49;;;;;;;;;;;28.50;19.50;;;;;;4996891;28;19918;-89
2022/05/01 12:55:16;;;;;;;;;;;28.20;19.70;;;;;;5012832;28;20281;-90
2022/05/01 12:58:02;;;;;;;;;;;28.60;19.70;;;;;;5009178;28;20320;-88
2022/05/01 13:00:41;;;;;;;;;;;28.90;19.40;;;;;;5009239;28;20020;-89
2022/05/01 13:03:17;;;;;;;;;;;28.80;19.30;;;;;;4995900;28;20331;-89
2022/05/01 13:05:54;;;;;;;;;;;29.10;19.30;;;;;;4995205;28;19929;-90
2022/05/01 13:08:20;;;;;;;;;;;29.20;19.20;;;;;;4995517;28;19913;-89
2022/05/01 13:11:04;;;;;;;;;;;29.00;19.20;;;;;;4994432;28;19968;-89
2022/05/01 13:13:42;;;;;;;;;;;28.80;19.50;;;;;;5015156;28;19965;-88
2022/05/01 13:16:07;;;;;;;;;;;28.60;19.60;;;;;;4993377;28;19914;-89
2022/05/01 13:18:32;;;;;;;;;;;28.50;19.50;;;;;;4997237;28;20009;-88
2022/05/01 13:20:59;;;;;;;;;;;28.30;19.80;;;;;;5014896;28;19940;-88
2022/05/01 13:23:25;;;;;;;;;;;28.30;20.00;;;;;;5013195;28;19963;-88
2022/05/01 13:25:50;;;;;;;;;;;28.20;20.10;;;;;;4992560;28;20016;-87
2022/05/01 13:28:16;;;;;;;;;;;28.20;20.20;;;;;;5010443;28;20448;-87
2022/05/01 13:30:41;;;;;;;;;;;28.20;20.30;;;;;;4988369;28;19968;-88
2022/05/01 13:33:07;;;;;;;;;;;28.50;19.90;;;;;;5008348;28;20572;-88
2022/05/01 13:35:32;;;;;;;;;;;29.10;19.50;;;;;;4994368;28;19980;-87
2022/05/01 13:37:58;;;;;;;;;;;29.70;19.20;;;;;;5011759;28;19983;-87
2022/05/01 13:45:52;;;;;;;;;;;28.80;19.30;;;;;;5012329;28;20343;-89
2022/05/01 13:48:21;;;;;;;;;;;28.60;19.80;;;;;;5011749;28;19921;-89
2022/05/01 13:50:47;;;;;;;;;;;28.70;19.80;;;;;;4995152;28;20000;-88
2022/05/01 13:53:13;;;;;;;;;;;28.50;20.10;;;;;;5012066;28;19956;-87
2022/05/01 13:55:39;;;;;;;;;;;28.30;20.40;;;;;;5011955;28;19924;-88
2022/05/01 13:58:04;;;;;;;;;;;28.20;20.60;;;;;;5011772;28;20016;-88
2022/05/01 14:00:30;;;;;;;;;;;28.00;20.60;;;;;;5011665;28;20001;-88
2022/05/01 14:02:56;;;;;;;;;;;27.90;20.80;;;;;;5010550;28;19968;-88
2022/05/01 14:05:21;;;;;;;;;;;28.00;21.00;;;;;;5011994;28;19936;-88
2022/05/01 14:07:47;;;;;;;;;;;27.90;20.80;;;;;;5010202;28;20928;-88
2022/05/01 14:10:12;;;;;;;;;;;27.80;20.80;;;;;;4993514;28;20396;-87
2022/05/01 14:12:38;;;;;;;;;;;27.60;20.80;;;;;;5011041;28;20005;-88
2022/05/01 14:15:03;;;;;;;;;;;27.40;20.90;;;;;;4994251;28;19922;-88
2022/05/01 14:17:29;;;;;;;;;;;27.30;20.90;;;;;;5010603;28;19913;-88
2022/05/01 14:19:56;;;;;;;;;;;27.30;21.10;;;;;;4995334;28;19918;-88
2022/05/01 14:22:23;;;;;;;;;;;27.30;21.10;;;;;;5011848;28;19917;-88
2022/05/01 14:24:52;;;;;;;;;;;27.20;21.10;;;;;;5009887;28;20012;-89
2022/05/01 14:27:19;;;;;;;;;;;26.90;21.20;;;;;;4993363;28;19918;-88
2022/05/01 14:29:45;;;;;;;;;;;26.70;21.40;;;;;;4993633;28;19918;-89
2022/05/01 14:32:16;;;;;;;;;;;26.50;21.70;;;;;;5011136;28;19914;-87
2022/05/01 14:34:45;;;;;;;;;;;26.40;21.90;;;;;;4994630;28;20354;-88
2022/05/01 14:37:16;;;;;;;;;;;26.30;22.10;;;;;;5009198;28;20009;-88
2022/05/01 14:39:43;;;;;;;;;;;26.10;22.50;;;;;;5015232;28;19956;-86
2022/05/01 14:42:15;;;;;;;;;;;26.00;22.70;;;;;;4997637;28;19914;-88
2022/05/01 14:44:48;;;;;;;;;;;25.90;22.70;;;;;;5015949;28;19925;-90
2022/05/01 14:47:20;;;;;;;;;;;25.80;22.80;;;;;;4999812;28;19921;-88
2022/05/01 14:49:49;;;;;;;;;;;25.80;22.80;;;;;;5017075;28;19952;-87
2022/05/01 14:52:15;;;;;;;;;;;25.80;22.80;;;;;;5013217;28;20020;-84
2022/05/01 14:54:44;;;;;;;;;;;25.70;22.90;;;;;;4996910;28;19936;-90
2022/05/01 14:57:12;;;;;;;;;;;25.60;23.00;;;;;;4978692;28;19926;-90